sensor_id;sensor_type;location;lat;lon;timestamp;P1;durP1;ratioP1;P2;durP2;ratioP2
61673;SDS011;47573;43.832;5.974;2023-01-29T00:03:21;600.57;;;400.87;;
61673;SDS011;47573;43.832;5.974;2023-01-29T00:10:01;621.92;;;423.88;;
61673;SDS011;47573;43.832;5.974;2023-01-29T00:16:42;634.85;;;430.25;;
61673;SDS011;47573;43.832;5.974;2023-01-29T00:23:24;635.97;;;431.77;;
61673;SDS011;47573;43.832;5.974;2023-01-29T00:30:05;639.78;;;433.35;;
61673;SDS011;47573;43.832;5.974;2023-01-29T00:36:47;639.20;;;437.00;;
61673;SDS011;47573;43.832;5.974;2023-01-29T00:43:28;667.60;;;461.40;;
61673;SDS011;47573;43.832;5.974;2023-01-29T00:50:09;661.40;;;457.60;;
61673;SDS011;47573;43.832;5.974;2023-01-29T00:56:51;659.95;;;450.40;;
61673;SDS011;47573;43.832;5.974;2023-01-29T01:03:33;634.33;;;429.07;;
61673;SDS011;47573;43.832;5.974;2023-01-29T01:10:15;623.05;;;407.27;;
61673;SDS011;47573;43.832;5.974;2023-01-29T01:16:57;597.78;;;390.98;;
61673;SDS011;47573;43.832;5.974;2023-01-29T01:23:39;597.30;;;383.97;;
61673;SDS011;47573;43.832;5.974;2023-01-29T01:30:20;565.42;;;359.10;;
61673;SDS011;47573;43.832;5.974;2023-01-29T01:37:01;556.83;;;349.75;;
61673;SDS011;47573;43.832;5.974;2023-01-29T01:43:49;565.85;;;357.73;;
61673;SDS011;47573;43.832;5.974;2023-01-29T01:50:32;560.28;;;349.65;;
61673;SDS011;47573;43.832;5.974;2023-01-29T01:57:16;527.67;;;324.90;;
61673;SDS011;47573;43.832;5.974;2023-01-29T02:04:03;513.83;;;312.45;;
61673;SDS011;47573;43.832;5.974;2023-01-29T02:10:46;508.38;;;308.42;;
61673;SDS011;47573;43.832;5.974;2023-01-29T02:17:28;505.20;;;303.95;;
61673;SDS011;47573;43.832;5.974;2023-01-29T02:24:13;500.88;;;298.25;;
61673;SDS011;47573;43.832;5.974;2023-01-29T02:31:30;485.42;;;284.42;;
61673;SDS011;47573;43.832;5.974;2023-01-29T02:38:16;469.35;;;276.13;;
61673;SDS011;47573;43.832;5.974;2023-01-29T02:45:04;472.63;;;272.27;;
61673;SDS011;47573;43.832;5.974;2023-01-29T02:51:54;455.58;;;262.17;;
61673;SDS011;47573;43.832;5.974;2023-01-29T02:58:42;435.75;;;246.73;;
61673;SDS011;47573;43.832;5.974;2023-01-29T03:05:28;418.75;;;238.50;;
61673;SDS011;47573;43.832;5.974;2023-01-29T03:12:15;407.63;;;231.38;;
61673;SDS011;47573;43.832;5.974;2023-01-29T03:19:03;398.13;;;226.38;;
61673;SDS011;47573;43.832;5.974;2023-01-29T03:25:47;392.52;;;219.43;;
61673;SDS011;47573;43.832;5.974;2023-01-29T03:32:31;372.70;;;204.40;;
61673;SDS011;47573;43.832;5.974;2023-01-29T03:39:12;354.38;;;195.40;;
61673;SDS011;47573;43.832;5.974;2023-01-29T03:45:56;347.60;;;187.82;;
61673;SDS011;47573;43.832;5.974;2023-01-29T03:52:43;334.52;;;177.32;;
61673;SDS011;47573;43.832;5.974;2023-01-29T03:59:31;324.52;;;170.75;;
61673;SDS011;47573;43.832;5.974;2023-01-29T04:06:19;312.85;;;165.45;;
61673;SDS011;47573;43.832;5.974;2023-01-29T04:13:04;307.55;;;158.75;;
61673;SDS011;47573;43.832;5.974;2023-01-29T04:19:46;304.92;;;159.35;;
61673;SDS011;47573;43.832;5.974;2023-01-29T04:26:32;296.65;;;154.00;;
61673;SDS011;47573;43.832;5.974;2023-01-29T04:33:30;287.83;;;149.02;;
61673;SDS011;47573;43.832;5.974;2023-01-29T04:40:19;281.23;;;142.93;;
61673;SDS011;47573;43.832;5.974;2023-01-29T04:47:03;268.95;;;136.20;;
61673;SDS011;47573;43.832;5.974;2023-01-29T04:53:56;248.38;;;130.95;;
61673;SDS011;47573;43.832;5.974;2023-01-29T05:00:46;242.25;;;123.82;;
61673;SDS011;47573;43.832;5.974;2023-01-29T05:07:29;236.88;;;120.05;;
61673;SDS011;47573;43.832;5.974;2023-01-29T05:14:11;227.20;;;115.32;;
61673;SDS011;47573;43.832;5.974;2023-01-29T05:20:55;216.95;;;111.78;;
61673;SDS011;47573;43.832;5.974;2023-01-29T05:27:37;209.20;;;105.82;;
61673;SDS011;47573;43.832;5.974;2023-01-29T05:34:19;197.27;;;103.03;;
61673;SDS011;47573;43.832;5.974;2023-01-29T05:41:00;194.90;;;98.40;;
61673;SDS011;47573;43.832;5.974;2023-01-29T05:47:40;182.93;;;95.20;;
61673;SDS011;47573;43.832;5.974;2023-01-29T05:54:22;187.87;;;95.40;;
61673;SDS011;47573;43.832;5.974;2023-01-29T06:01:09;182.73;;;90.13;;
61673;SDS011;47573;43.832;5.974;2023-01-29T06:07:50;175.38;;;89.32;;
61673;SDS011;47573;43.832;5.974;2023-01-29T06:14:32;172.10;;;84.97;;
61673;SDS011;47573;43.832;5.974;2023-01-29T06:21:13;164.57;;;84.70;;
61673;SDS011;47573;43.832;5.974;2023-01-29T06:27:53;161.03;;;79.57;;
61673;SDS011;47573;43.832;5.974;2023-01-29T06:34:35;156.90;;;76.67;;
61673;SDS011;47573;43.832;5.974;2023-01-29T06:41:16;153.10;;;75.95;;
61673;SDS011;47573;43.832;5.974;2023-01-29T06:47:58;155.20;;;76.22;;
61673;SDS011;47573;43.832;5.974;2023-01-29T06:54:40;146.37;;;71.17;;
61673;SDS011;47573;43.832;5.974;2023-01-29T07:01:20;145.52;;;70.78;;
61673;SDS011;47573;43.832;5.974;2023-01-29T07:08:01;141.63;;;69.87;;
61673;SDS011;47573;43.832;5.974;2023-01-29T07:14:43;140.82;;;67.65;;
61673;SDS011;47573;43.832;5.974;2023-01-29T07:21:23;137.27;;;66.82;;
61673;SDS011;47573;43.832;5.974;2023-01-29T07:28:04;126.10;;;62.13;;
61673;SDS011;47573;43.832;5.974;2023-01-29T07:34:46;137.82;;;64.07;;
61673;SDS011;47573;43.832;5.974;2023-01-29T07:41:27;181.07;;;74.85;;
61673;SDS011;47573;43.832;5.974;2023-01-29T07:48:08;146.90;;;68.97;;
61673;SDS011;47573;43.832;5.974;2023-01-29T07:54:52;171.27;;;73.23;;
61673;SDS011;47573;43.832;5.974;2023-01-29T08:01:32;319.95;;;102.25;;
61673;SDS011;47573;43.832;5.974;2023-01-29T08:08:13;246.07;;;85.83;;
61673;SDS011;47573;43.832;5.974;2023-01-29T08:14:54;223.23;;;84.00;;
61673;SDS011;47573;43.832;5.974;2023-01-29T08:21:35;189.30;;;78.60;;
61673;SDS011;47573;43.832;5.974;2023-01-29T08:28:15;204.30;;;81.40;;
61673;SDS011;47573;43.832;5.974;2023-01-29T08:34:57;186.63;;;79.95;;
61673;SDS011;47573;43.832;5.974;2023-01-29T08:41:38;207.95;;;78.82;;
61673;SDS011;47573;43.832;5.974;2023-01-29T08:48:18;189.10;;;78.27;;
61673;SDS011;47573;43.832;5.974;2023-01-29T08:55:00;199.98;;;83.68;;
61673;SDS011;47573;43.832;5.974;2023-01-29T09:01:41;375.17;;;113.18;;
61673;SDS011;47573;43.832;5.974;2023-01-29T09:08:21;175.52;;;73.90;;
61673;SDS011;47573;43.832;5.974;2023-01-29T09:15:04;158.82;;;73.95;;
61673;SDS011;47573;43.832;5.974;2023-01-29T09:21:44;144.23;;;72.00;;
61673;SDS011;47573;43.832;5.974;2023-01-29T09:28:25;113.43;;;63.97;;
61673;SDS011;47573;43.832;5.974;2023-01-29T09:35:07;108.20;;;61.30;;
61673;SDS011;47573;43.832;5.974;2023-01-29T09:41:50;102.05;;;57.58;;
61673;SDS011;47573;43.832;5.974;2023-01-29T09:48:35;97.68;;;57.92;;
61673;SDS011;47573;43.832;5.974;2023-01-29T09:55:19;100.45;;;56.80;;
61673;SDS011;47573;43.832;5.974;2023-01-29T10:02:05;94.60;;;53.92;;
61673;SDS011;47573;43.832;5.974;2023-01-29T10:09:01;92.45;;;55.67;;
61673;SDS011;47573;43.832;5.974;2023-01-29T10:16:01;95.07;;;55.80;;
61673;SDS011;47573;43.832;5.974;2023-01-29T10:22:58;91.75;;;52.88;;
61673;SDS011;47573;43.832;5.974;2023-01-29T10:29:46;91.85;;;53.60;;
61673;SDS011;47573;43.832;5.974;2023-01-29T10:36:33;92.03;;;55.17;;
61673;SDS011;47573;43.832;5.974;2023-01-29T10:43:18;92.88;;;53.58;;
61673;SDS011;47573;43.832;5.974;2023-01-29T10:50:14;88.18;;;51.47;;
61673;SDS011;47573;43.832;5.974;2023-01-29T10:57:04;87.20;;;51.63;;
61673;SDS011;47573;43.832;5.974;2023-01-29T11:10:36;1088.25;;;422.95;;
61673;SDS011;47573;43.832;5.974;2023-01-29T11:17:22;107.03;;;57.28;;
61673;SDS011;47573;43.832;5.974;2023-01-29T11:24:06;91.65;;;53.53;;
61673;SDS011;47573;43.832;5.974;2023-01-29T11:30:50;80.30;;;47.17;;
61673;SDS011;47573;43.832;5.974;2023-01-29T11:37:34;82.70;;;48.53;;
61673;SDS011;47573;43.832;5.974;2023-01-29T11:44:16;80.82;;;48.20;;
61673;SDS011;47573;43.832;5.974;2023-01-29T11:50:58;105.43;;;53.90;;
61673;SDS011;47573;43.832;5.974;2023-01-29T11:57:41;152.77;;;64.80;;
61673;SDS011;47573;43.832;5.974;2023-01-29T12:04:25;155.85;;;63.13;;
61673;SDS011;47573;43.832;5.974;2023-01-29T12:11:06;114.15;;;55.35;;
61673;SDS011;47573;43.832;5.974;2023-01-29T12:17:55;91.72;;;49.88;;
61673;SDS011;47573;43.832;5.974;2023-01-29T12:24:42;80.45;;;46.95;;
61673;SDS011;47573;43.832;5.974;2023-01-29T12:31:31;78.93;;;45.78;;
61673;SDS011;47573;43.832;5.974;2023-01-29T12:38:19;74.50;;;44.20;;
61673;SDS011;47573;43.832;5.974;2023-01-29T12:45:02;142.80;;;57.85;;
61673;SDS011;47573;43.832;5.974;2023-01-29T12:51:49;96.18;;;48.35;;
61673;SDS011;47573;43.832;5.974;2023-01-29T12:58:37;182.70;;;78.60;;
61673;SDS011;47573;43.832;5.974;2023-01-29T13:05:23;309.25;;;121.57;;
61673;SDS011;47573;43.832;5.974;2023-01-29T13:12:10;298.40;;;117.00;;
61673;SDS011;47573;43.832;5.974;2023-01-29T13:18:55;284.35;;;116.07;;
61673;SDS011;47573;43.832;5.974;2023-01-29T13:25:38;269.70;;;112.47;;
61673;SDS011;47573;43.832;5.974;2023-01-29T13:32:19;263.93;;;107.57;;
61673;SDS011;47573;43.832;5.974;2023-01-29T13:39:04;253.27;;;103.90;;
61673;SDS011;47573;43.832;5.974;2023-01-29T13:45:47;247.55;;;101.68;;
61673;SDS011;47573;43.832;5.974;2023-01-29T13:52:33;241.30;;;98.85;;
61673;SDS011;47573;43.832;5.974;2023-01-29T13:59:24;244.93;;;99.60;;
61673;SDS011;47573;43.832;5.974;2023-01-29T14:06:37;222.73;;;94.85;;
61673;SDS011;47573;43.832;5.974;2023-01-29T14:13:25;218.98;;;91.50;;
61673;SDS011;47573;43.832;5.974;2023-01-29T14:20:16;212.38;;;91.53;;
61673;SDS011;47573;43.832;5.974;2023-01-29T14:26:58;1162.13;;;457.17;;
61673;SDS011;47573;43.832;5.974;2023-01-29T14:33:39;225.87;;;94.10;;
61673;SDS011;47573;43.832;5.974;2023-01-29T14:40:22;320.80;;;112.53;;
61673;SDS011;47573;43.832;5.974;2023-01-29T14:47:05;369.77;;;136.13;;
61673;SDS011;47573;43.832;5.974;2023-01-29T14:53:57;556.83;;;227.75;;
61673;SDS011;47573;43.832;5.974;2023-01-29T15:00:43;311.83;;;140.77;;
61673;SDS011;47573;43.832;5.974;2023-01-29T15:07:31;286.48;;;134.75;;
61673;SDS011;47573;43.832;5.974;2023-01-29T15:14:20;283.10;;;132.65;;
61673;SDS011;47573;43.832;5.974;2023-01-29T15:21:10;269.85;;;126.68;;
61673;SDS011;47573;43.832;5.974;2023-01-29T15:27:51;254.10;;;121.25;;
61673;SDS011;47573;43.832;5.974;2023-01-29T15:34:35;242.85;;;117.35;;
61673;SDS011;47573;43.832;5.974;2023-01-29T15:41:17;279.60;;;133.63;;
61673;SDS011;47573;43.832;5.974;2023-01-29T15:54:42;331.70;;;157.43;;
61673;SDS011;47573;43.832;5.974;2023-01-29T16:01:26;314.23;;;152.10;;
61673;SDS011;47573;43.832;5.974;2023-01-29T16:08:08;320.40;;;152.90;;
61673;SDS011;47573;43.832;5.974;2023-01-29T16:14:52;346.67;;;173.77;;
61673;SDS011;47573;43.832;5.974;2023-01-29T16:21:35;378.83;;;193.60;;
61673;SDS011;47573;43.832;5.974;2023-01-29T16:28:17;395.67;;;205.82;;
61673;SDS011;47573;43.832;5.974;2023-01-29T16:34:58;442.65;;;236.27;;
61673;SDS011;47573;43.832;5.974;2023-01-29T16:41:41;432.77;;;235.05;;
61673;SDS011;47573;43.832;5.974;2023-01-29T16:48:24;485.35;;;261.13;;
61673;SDS011;47573;43.832;5.974;2023-01-29T16:55:19;503.60;;;288.33;;
61673;SDS011;47573;43.832;5.974;2023-01-29T17:02:02;534.53;;;308.83;;
61673;SDS011;47573;43.832;5.974;2023-01-29T17:08:43;543.80;;;318.17;;
61673;SDS011;47573;43.832;5.974;2023-01-29T17:15:34;560.58;;;333.77;;
61673;SDS011;47573;43.832;5.974;2023-01-29T17:22:23;594.28;;;355.02;;
61673;SDS011;47573;43.832;5.974;2023-01-29T17:29:04;590.03;;;360.25;;
61673;SDS011;47573;43.832;5.974;2023-01-29T17:35:45;612.00;;;373.70;;
61673;SDS011;47573;43.832;5.974;2023-01-29T17:42:27;627.08;;;391.50;;
61673;SDS011;47573;43.832;5.974;2023-01-29T17:49:10;614.53;;;381.50;;
61673;SDS011;47573;43.832;5.974;2023-01-29T17:56:00;604.78;;;366.13;;
61673;SDS011;47573;43.832;5.974;2023-01-29T18:02:42;588.33;;;366.92;;
61673;SDS011;47573;43.832;5.974;2023-01-29T18:09:24;625.08;;;393.00;;
61673;SDS011;47573;43.832;5.974;2023-01-29T18:16:04;637.60;;;398.40;;
61673;SDS011;47573;43.832;5.974;2023-01-29T18:22:46;641.58;;;411.77;;
61673;SDS011;47573;43.832;5.974;2023-01-29T18:29:27;660.15;;;431.73;;
61673;SDS011;47573;43.832;5.974;2023-01-29T18:36:08;645.27;;;426.13;;
61673;SDS011;47573;43.832;5.974;2023-01-29T18:42:50;661.63;;;434.30;;
61673;SDS011;47573;43.832;5.974;2023-01-29T18:49:30;683.90;;;459.25;;
61673;SDS011;47573;43.832;5.974;2023-01-29T18:56:11;698.27;;;462.00;;
61673;SDS011;47573;43.832;5.974;2023-01-29T19:02:52;1016.42;;;571.15;;
61673;SDS011;47573;43.832;5.974;2023-01-29T19:09:33;706.70;;;475.02;;
61673;SDS011;47573;43.832;5.974;2023-01-29T19:16:14;699.80;;;471.00;;
61673;SDS011;47573;43.832;5.974;2023-01-29T19:22:56;721.10;;;487.55;;
61673;SDS011;47573;43.832;5.974;2023-01-29T19:29:36;736.63;;;505.33;;
61673;SDS011;47573;43.832;5.974;2023-01-29T19:36:17;724.63;;;493.33;;
61673;SDS011;47573;43.832;5.974;2023-01-29T19:42:59;735.28;;;504.73;;
61673;SDS011;47573;43.832;5.974;2023-01-29T19:49:39;758.75;;;517.47;;
61673;SDS011;47573;43.832;5.974;2023-01-29T19:56:20;734.20;;;502.13;;
61673;SDS011;47573;43.832;5.974;2023-01-29T20:03:02;745.15;;;509.40;;
61673;SDS011;47573;43.832;5.974;2023-01-29T20:09:42;749.78;;;515.67;;
61673;SDS011;47573;43.832;5.974;2023-01-29T20:16:23;744.30;;;514.90;;
61673;SDS011;47573;43.832;5.974;2023-01-29T20:23:06;735.47;;;511.60;;
61673;SDS011;47573;43.832;5.974;2023-01-29T20:29:46;729.50;;;504.48;;
61673;SDS011;47573;43.832;5.974;2023-01-29T20:36:27;732.13;;;513.22;;
61673;SDS011;47573;43.832;5.974;2023-01-29T20:43:08;742.78;;;521.85;;
61673;SDS011;47573;43.832;5.974;2023-01-29T20:49:49;750.47;;;524.03;;
61673;SDS011;47573;43.832;5.974;2023-01-29T20:56:29;742.70;;;522.73;;
61673;SDS011;47573;43.832;5.974;2023-01-29T21:03:11;728.83;;;519.33;;
61673;SDS011;47573;43.832;5.974;2023-01-29T21:09:52;719.92;;;507.25;;
61673;SDS011;47573;43.832;5.974;2023-01-29T21:16:32;727.17;;;510.63;;
61673;SDS011;47573;43.832;5.974;2023-01-29T21:23:14;718.27;;;504.17;;
61673;SDS011;47573;43.832;5.974;2023-01-29T21:29:55;725.38;;;507.67;;
61673;SDS011;47573;43.832;5.974;2023-01-29T21:36:36;714.47;;;496.27;;
61673;SDS011;47573;43.832;5.974;2023-01-29T21:43:18;705.38;;;492.27;;
61673;SDS011;47573;43.832;5.974;2023-01-29T21:49:58;696.45;;;481.63;;
61673;SDS011;47573;43.832;5.974;2023-01-29T21:56:39;709.88;;;501.90;;
61673;SDS011;47573;43.832;5.974;2023-01-29T22:03:20;729.88;;;518.45;;
61673;SDS011;47573;43.832;5.974;2023-01-29T22:10:01;731.42;;;512.50;;
61673;SDS011;47573;43.832;5.974;2023-01-29T22:16:42;740.13;;;530.75;;
61673;SDS011;47573;43.832;5.974;2023-01-29T22:23:24;736.35;;;521.55;;
61673;SDS011;47573;43.832;5.974;2023-01-29T22:30:05;743.17;;;531.33;;
61673;SDS011;47573;43.832;5.974;2023-01-29T22:36:46;765.90;;;550.78;;
61673;SDS011;47573;43.832;5.974;2023-01-29T22:43:28;745.73;;;534.43;;
61673;SDS011;47573;43.832;5.974;2023-01-29T22:50:09;738.75;;;530.80;;
61673;SDS011;47573;43.832;5.974;2023-01-29T22:56:50;724.63;;;515.88;;
61673;SDS011;47573;43.832;5.974;2023-01-29T23:03:32;719.37;;;513.97;;
61673;SDS011;47573;43.832;5.974;2023-01-29T23:10:13;703.08;;;496.42;;
61673;SDS011;47573;43.832;5.974;2023-01-29T23:16:54;697.42;;;493.42;;
61673;SDS011;47573;43.832;5.974;2023-01-29T23:23:36;686.47;;;477.27;;
61673;SDS011;47573;43.832;5.974;2023-01-29T23:30:17;683.13;;;476.23;;
61673;SDS011;47573;43.832;5.974;2023-01-29T23:36:57;698.05;;;490.30;;
61673;SDS011;47573;43.832;5.974;2023-01-29T23:43:39;719.78;;;503.42;;
61673;SDS011;47573;43.832;5.974;2023-01-29T23:50:20;711.95;;;493.95;;
61673;SDS011;47573;43.832;5.974;2023-01-29T23:57:00;727.00;;;513.37;;
